sensor_id;sensor_type;location;lat;lon;timestamp;P1;durP1;ratioP1;P2;durP2;ratioP2
44925;SDS011;30662;51.210;7.656;2023-05-07T00:00:41;3.10;;;1.77;;
44925;SDS011;30662;51.210;7.656;2023-05-07T00:03:08;3.05;;;1.40;;
44925;SDS011;30662;51.210;7.656;2023-05-07T00:05:34;3.33;;;1.35;;
44925;SDS011;30662;51.210;7.656;2023-05-07T00:08:00;2.05;;;1.10;;
44925;SDS011;30662;51.210;7.656;2023-05-07T00:10:29;2.33;;;1.20;;
44925;SDS011;30662;51.210;7.656;2023-05-07T00:12:55;13.07;;;2.05;;
44925;SDS011;30662;51.210;7.656;2023-05-07T00:15:21;2.20;;;1.05;;
44925;SDS011;30662;51.210;7.656;2023-05-07T00:17:47;3.40;;;1.52;;
44925;SDS011;30662;51.210;7.656;2023-05-07T00:20:13;4.72;;;1.23;;
44925;SDS011;30662;51.210;7.656;2023-05-07T00:22:39;2.60;;;1.30;;
44925;SDS011;30662;51.210;7.656;2023-05-07T00:25:05;5.07;;;1.23;;
44925;SDS011;30662;51.210;7.656;2023-05-07T00:27:31;1.92;;;1.23;;
44925;SDS011;30662;51.210;7.656;2023-05-07T00:29:57;1.55;;;0.95;;
44925;SDS011;30662;51.210;7.656;2023-05-07T00:32:23;2.85;;;1.20;;
44925;SDS011;30662;51.210;7.656;2023-05-07T00:34:49;2.13;;;1.42;;
44925;SDS011;30662;51.210;7.656;2023-05-07T00:37:16;2.17;;;1.13;;
44925;SDS011;30662;51.210;7.656;2023-05-07T00:39:42;3.35;;;1.42;;
44925;SDS011;30662;51.210;7.656;2023-05-07T00:42:08;1.73;;;1.20;;
44925;SDS011;30662;51.210;7.656;2023-05-07T00:44:34;2.45;;;1.52;;
44925;SDS011;30662;51.210;7.656;2023-05-07T00:47:01;3.00;;;1.40;;
44925;SDS011;30662;51.210;7.656;2023-05-07T00:49:38;5.63;;;1.83;;
44925;SDS011;30662;51.210;7.656;2023-05-07T00:52:06;3.53;;;1.40;;
44925;SDS011;30662;51.210;7.656;2023-05-07T00:54:34;2.50;;;1.10;;
44925;SDS011;30662;51.210;7.656;2023-05-07T00:57:01;1.95;;;1.00;;
44925;SDS011;30662;51.210;7.656;2023-05-07T00:59:29;1.73;;;1.27;;
44925;SDS011;30662;51.210;7.656;2023-05-07T01:01:57;4.53;;;1.98;;
44925;SDS011;30662;51.210;7.656;2023-05-07T01:04:24;3.45;;;1.83;;
44925;SDS011;30662;51.210;7.656;2023-05-07T01:06:51;3.50;;;1.20;;
44925;SDS011;30662;51.210;7.656;2023-05-07T01:09:20;1.23;;;1.13;;
44925;SDS011;30662;51.210;7.656;2023-05-07T01:11:47;3.47;;;1.40;;
44925;SDS011;30662;51.210;7.656;2023-05-07T01:14:13;1.88;;;0.90;;
44925;SDS011;30662;51.210;7.656;2023-05-07T01:16:39;2.50;;;1.40;;
44925;SDS011;30662;51.210;7.656;2023-05-07T01:19:06;3.08;;;1.10;;
44925;SDS011;30662;51.210;7.656;2023-05-07T01:21:33;2.70;;;1.10;;
44925;SDS011;30662;51.210;7.656;2023-05-07T01:24:02;1.92;;;1.25;;
44925;SDS011;30662;51.210;7.656;2023-05-07T01:26:29;2.08;;;1.05;;
44925;SDS011;30662;51.210;7.656;2023-05-07T01:28:55;2.38;;;1.40;;
44925;SDS011;30662;51.210;7.656;2023-05-07T01:31:21;3.00;;;1.42;;
44925;SDS011;30662;51.210;7.656;2023-05-07T01:33:51;3.17;;;1.10;;
44925;SDS011;30662;51.210;7.656;2023-05-07T01:36:18;2.00;;;1.08;;
44925;SDS011;30662;51.210;7.656;2023-05-07T01:38:48;1.23;;;1.05;;
44925;SDS011;30662;51.210;7.656;2023-05-07T01:41:14;2.15;;;1.10;;
44925;SDS011;30662;51.210;7.656;2023-05-07T01:43:41;3.78;;;1.25;;
44925;SDS011;30662;51.210;7.656;2023-05-07T01:46:08;1.77;;;1.38;;
44925;SDS011;30662;51.210;7.656;2023-05-07T01:48:35;2.63;;;1.20;;
44925;SDS011;30662;51.210;7.656;2023-05-07T01:51:02;2.13;;;1.33;;
44925;SDS011;30662;51.210;7.656;2023-05-07T01:53:35;3.42;;;1.40;;
44925;SDS011;30662;51.210;7.656;2023-05-07T01:56:02;2.10;;;1.38;;
44925;SDS011;30662;51.210;7.656;2023-05-07T01:58:28;1.52;;;1.20;;
44925;SDS011;30662;51.210;7.656;2023-05-07T02:00:54;2.78;;;1.33;;
44925;SDS011;30662;51.210;7.656;2023-05-07T02:03:19;1.80;;;1.30;;
44925;SDS011;30662;51.210;7.656;2023-05-07T02:05:50;1.52;;;1.10;;
44925;SDS011;30662;51.210;7.656;2023-05-07T02:08:16;1.20;;;1.00;;
44925;SDS011;30662;51.210;7.656;2023-05-07T02:10:42;2.17;;;1.40;;
44925;SDS011;30662;51.210;7.656;2023-05-07T02:13:07;4.05;;;1.33;;
44925;SDS011;30662;51.210;7.656;2023-05-07T02:15:33;4.32;;;1.25;;
44925;SDS011;30662;51.210;7.656;2023-05-07T02:20:35;1.88;;;1.08;;
44925;SDS011;30662;51.210;7.656;2023-05-07T02:23:02;3.22;;;1.30;;
44925;SDS011;30662;51.210;7.656;2023-05-07T02:25:28;1.42;;;1.20;;
44925;SDS011;30662;51.210;7.656;2023-05-07T02:27:55;2.08;;;1.25;;
44925;SDS011;30662;51.210;7.656;2023-05-07T02:30:21;2.05;;;1.63;;
44925;SDS011;30662;51.210;7.656;2023-05-07T02:32:47;3.30;;;1.30;;
44925;SDS011;30662;51.210;7.656;2023-05-07T02:35:13;2.63;;;1.30;;
44925;SDS011;30662;51.210;7.656;2023-05-07T02:37:39;3.33;;;1.30;;
44925;SDS011;30662;51.210;7.656;2023-05-07T02:40:05;1.67;;;1.23;;
44925;SDS011;30662;51.210;7.656;2023-05-07T02:42:31;3.05;;;1.35;;
44925;SDS011;30662;51.210;7.656;2023-05-07T02:44:57;3.30;;;1.55;;
44925;SDS011;30662;51.210;7.656;2023-05-07T02:47:24;2.60;;;1.48;;
44925;SDS011;30662;51.210;7.656;2023-05-07T02:49:52;1.77;;;1.38;;
44925;SDS011;30662;51.210;7.656;2023-05-07T02:52:19;5.25;;;1.45;;
44925;SDS011;30662;51.210;7.656;2023-05-07T02:54:45;2.80;;;1.00;;
44925;SDS011;30662;51.210;7.656;2023-05-07T02:57:11;2.50;;;1.35;;
44925;SDS011;30662;51.210;7.656;2023-05-07T02:59:37;1.40;;;1.30;;
44925;SDS011;30662;51.210;7.656;2023-05-07T03:02:03;2.63;;;1.15;;
44925;SDS011;30662;51.210;7.656;2023-05-07T03:04:29;2.63;;;1.23;;
44925;SDS011;30662;51.210;7.656;2023-05-07T03:06:55;2.72;;;1.13;;
44925;SDS011;30662;51.210;7.656;2023-05-07T03:09:20;1.08;;;0.98;;
44925;SDS011;30662;51.210;7.656;2023-05-07T03:11:46;2.83;;;1.10;;
44925;SDS011;30662;51.210;7.656;2023-05-07T03:14:14;2.88;;;1.70;;
44925;SDS011;30662;51.210;7.656;2023-05-07T03:16:45;2.90;;;1.20;;
44925;SDS011;30662;51.210;7.656;2023-05-07T03:19:20;3.67;;;1.20;;
44925;SDS011;30662;51.210;7.656;2023-05-07T03:21:46;2.58;;;1.20;;
44925;SDS011;30662;51.210;7.656;2023-05-07T03:24:12;4.32;;;1.63;;
44925;SDS011;30662;51.210;7.656;2023-05-07T03:26:38;2.10;;;1.40;;
44925;SDS011;30662;51.210;7.656;2023-05-07T03:29:04;1.65;;;1.27;;
44925;SDS011;30662;51.210;7.656;2023-05-07T03:31:30;1.35;;;1.25;;
44925;SDS011;30662;51.210;7.656;2023-05-07T03:33:57;2.90;;;1.58;;
44925;SDS011;30662;51.210;7.656;2023-05-07T03:36:23;4.65;;;1.58;;
44925;SDS011;30662;51.210;7.656;2023-05-07T03:38:49;3.80;;;1.38;;
44925;SDS011;30662;51.210;7.656;2023-05-07T03:41:15;1.85;;;1.35;;
44925;SDS011;30662;51.210;7.656;2023-05-07T03:43:41;2.53;;;1.23;;
44925;SDS011;30662;51.210;7.656;2023-05-07T03:46:08;2.10;;;1.10;;
44925;SDS011;30662;51.210;7.656;2023-05-07T03:48:34;3.28;;;1.60;;
44925;SDS011;30662;51.210;7.656;2023-05-07T03:51:00;1.92;;;1.35;;
44925;SDS011;30662;51.210;7.656;2023-05-07T03:53:26;3.38;;;1.65;;
44925;SDS011;30662;51.210;7.656;2023-05-07T03:55:52;3.58;;;1.42;;
44925;SDS011;30662;51.210;7.656;2023-05-07T03:58:18;2.97;;;1.50;;
44925;SDS011;30662;51.210;7.656;2023-05-07T04:00:44;2.75;;;1.70;;
44925;SDS011;30662;51.210;7.656;2023-05-07T04:03:11;4.65;;;1.63;;
44925;SDS011;30662;51.210;7.656;2023-05-07T04:05:37;4.00;;;1.52;;
44925;SDS011;30662;51.210;7.656;2023-05-07T04:08:03;4.45;;;1.63;;
44925;SDS011;30662;51.210;7.656;2023-05-07T04:10:29;3.17;;;1.80;;
44925;SDS011;30662;51.210;7.656;2023-05-07T04:12:55;3.95;;;1.73;;
44925;SDS011;30662;51.210;7.656;2023-05-07T04:15:23;2.10;;;1.42;;
44925;SDS011;30662;51.210;7.656;2023-05-07T04:17:49;2.33;;;1.70;;
44925;SDS011;30662;51.210;7.656;2023-05-07T04:20:15;2.30;;;1.35;;
44925;SDS011;30662;51.210;7.656;2023-05-07T04:22:42;2.42;;;1.60;;
44925;SDS011;30662;51.210;7.656;2023-05-07T04:25:08;2.47;;;1.67;;
44925;SDS011;30662;51.210;7.656;2023-05-07T04:27:35;3.00;;;1.50;;
44925;SDS011;30662;51.210;7.656;2023-05-07T04:30:01;2.53;;;1.65;;
44925;SDS011;30662;51.210;7.656;2023-05-07T04:32:28;1.55;;;1.40;;
44925;SDS011;30662;51.210;7.656;2023-05-07T04:34:57;1.80;;;1.60;;
44925;SDS011;30662;51.210;7.656;2023-05-07T04:37:25;1.55;;;1.45;;
44925;SDS011;30662;51.210;7.656;2023-05-07T04:39:51;3.95;;;1.50;;
44925;SDS011;30662;51.210;7.656;2023-05-07T04:42:17;4.28;;;1.80;;
44925;SDS011;30662;51.210;7.656;2023-05-07T04:44:44;2.80;;;1.60;;
44925;SDS011;30662;51.210;7.656;2023-05-07T04:47:11;3.47;;;1.30;;
44925;SDS011;30662;51.210;7.656;2023-05-07T04:49:40;1.98;;;1.30;;
44925;SDS011;30662;51.210;7.656;2023-05-07T04:52:06;2.40;;;1.90;;
44925;SDS011;30662;51.210;7.656;2023-05-07T04:54:32;3.20;;;1.67;;
44925;SDS011;30662;51.210;7.656;2023-05-07T04:56:58;2.67;;;1.63;;
44925;SDS011;30662;51.210;7.656;2023-05-07T04:59:23;2.03;;;1.60;;
44925;SDS011;30662;51.210;7.656;2023-05-07T05:01:49;3.38;;;1.40;;
44925;SDS011;30662;51.210;7.656;2023-05-07T05:04:16;2.20;;;1.55;;
44925;SDS011;30662;51.210;7.656;2023-05-07T05:06:42;5.80;;;1.33;;
44925;SDS011;30662;51.210;7.656;2023-05-07T05:09:08;3.63;;;1.80;;
44925;SDS011;30662;51.210;7.656;2023-05-07T05:11:33;1.88;;;1.60;;
44925;SDS011;30662;51.210;7.656;2023-05-07T05:13:59;3.67;;;1.30;;
44925;SDS011;30662;51.210;7.656;2023-05-07T05:16:27;1.65;;;1.13;;
44925;SDS011;30662;51.210;7.656;2023-05-07T05:18:53;1.90;;;1.58;;
44925;SDS011;30662;51.210;7.656;2023-05-07T05:21:20;3.28;;;1.60;;
44925;SDS011;30662;51.210;7.656;2023-05-07T05:23:46;4.03;;;1.30;;
44925;SDS011;30662;51.210;7.656;2023-05-07T05:26:12;3.38;;;1.45;;
44925;SDS011;30662;51.210;7.656;2023-05-07T05:28:38;1.70;;;1.42;;
44925;SDS011;30662;51.210;7.656;2023-05-07T05:31:04;2.10;;;1.42;;
44925;SDS011;30662;51.210;7.656;2023-05-07T05:33:31;2.05;;;1.60;;
44925;SDS011;30662;51.210;7.656;2023-05-07T05:35:57;3.05;;;1.58;;
44925;SDS011;30662;51.210;7.656;2023-05-07T05:38:22;5.75;;;1.50;;
44925;SDS011;30662;51.210;7.656;2023-05-07T05:40:48;2.78;;;1.60;;
44925;SDS011;30662;51.210;7.656;2023-05-07T05:43:14;2.35;;;1.45;;
44925;SDS011;30662;51.210;7.656;2023-05-07T05:45:40;2.13;;;1.50;;
44925;SDS011;30662;51.210;7.656;2023-05-07T05:48:06;1.95;;;1.50;;
44925;SDS011;30662;51.210;7.656;2023-05-07T05:50:32;1.73;;;1.50;;
44925;SDS011;30662;51.210;7.656;2023-05-07T05:52:58;2.42;;;1.45;;
44925;SDS011;30662;51.210;7.656;2023-05-07T05:55:25;2.13;;;1.45;;
44925;SDS011;30662;51.210;7.656;2023-05-07T05:57:51;3.33;;;1.60;;
44925;SDS011;30662;51.210;7.656;2023-05-07T06:00:17;3.42;;;1.65;;
44925;SDS011;30662;51.210;7.656;2023-05-07T06:02:44;1.65;;;1.45;;
44925;SDS011;30662;51.210;7.656;2023-05-07T06:05:10;1.83;;;1.30;;
44925;SDS011;30662;51.210;7.656;2023-05-07T06:07:36;3.95;;;1.90;;
44925;SDS011;30662;51.210;7.656;2023-05-07T06:10:02;1.48;;;1.38;;
44925;SDS011;30662;51.210;7.656;2023-05-07T06:12:28;2.88;;;1.65;;
44925;SDS011;30662;51.210;7.656;2023-05-07T06:14:53;4.57;;;1.67;;
44925;SDS011;30662;51.210;7.656;2023-05-07T06:17:19;3.35;;;1.67;;
44925;SDS011;30662;51.210;7.656;2023-05-07T06:19:47;1.25;;;1.15;;
44925;SDS011;30662;51.210;7.656;2023-05-07T06:22:13;1.42;;;1.30;;
44925;SDS011;30662;51.210;7.656;2023-05-07T06:24:39;1.95;;;1.40;;
44925;SDS011;30662;51.210;7.656;2023-05-07T06:27:05;3.58;;;2.00;;
44925;SDS011;30662;51.210;7.656;2023-05-07T06:29:37;3.38;;;1.40;;
44925;SDS011;30662;51.210;7.656;2023-05-07T06:32:07;3.90;;;1.65;;
44925;SDS011;30662;51.210;7.656;2023-05-07T06:34:34;3.90;;;1.70;;
44925;SDS011;30662;51.210;7.656;2023-05-07T06:37:00;3.08;;;1.50;;
44925;SDS011;30662;51.210;7.656;2023-05-07T06:39:26;1.88;;;1.48;;
44925;SDS011;30662;51.210;7.656;2023-05-07T06:41:52;3.30;;;1.40;;
44925;SDS011;30662;51.210;7.656;2023-05-07T06:44:18;3.90;;;1.67;;
44925;SDS011;30662;51.210;7.656;2023-05-07T06:46:43;3.10;;;1.60;;
44925;SDS011;30662;51.210;7.656;2023-05-07T06:49:11;1.42;;;1.27;;
44925;SDS011;30662;51.210;7.656;2023-05-07T06:51:38;3.13;;;1.42;;
44925;SDS011;30662;51.210;7.656;2023-05-07T06:54:03;3.13;;;1.63;;
44925;SDS011;30662;51.210;7.656;2023-05-07T06:56:30;1.70;;;1.48;;
44925;SDS011;30662;51.210;7.656;2023-05-07T06:58:57;2.30;;;1.65;;
44925;SDS011;30662;51.210;7.656;2023-05-07T07:01:23;2.70;;;1.10;;
44925;SDS011;30662;51.210;7.656;2023-05-07T07:03:49;2.47;;;1.50;;
44925;SDS011;30662;51.210;7.656;2023-05-07T07:06:16;2.80;;;1.23;;
44925;SDS011;30662;51.210;7.656;2023-05-07T07:08:42;2.08;;;1.38;;
44925;SDS011;30662;51.210;7.656;2023-05-07T07:11:08;2.78;;;1.85;;
44925;SDS011;30662;51.210;7.656;2023-05-07T07:13:35;1.70;;;1.20;;
44925;SDS011;30662;51.210;7.656;2023-05-07T07:16:01;2.90;;;1.50;;
44925;SDS011;30662;51.210;7.656;2023-05-07T07:18:28;1.75;;;1.50;;
44925;SDS011;30662;51.210;7.656;2023-05-07T07:20:54;1.55;;;1.10;;
44925;SDS011;30662;51.210;7.656;2023-05-07T07:23:20;3.60;;;1.50;;
44925;SDS011;30662;51.210;7.656;2023-05-07T07:25:46;2.47;;;1.25;;
44925;SDS011;30662;51.210;7.656;2023-05-07T07:28:12;2.20;;;1.10;;
44925;SDS011;30662;51.210;7.656;2023-05-07T07:30:38;5.80;;;1.40;;
44925;SDS011;30662;51.210;7.656;2023-05-07T07:33:04;1.75;;;1.40;;
44925;SDS011;30662;51.210;7.656;2023-05-07T07:35:33;4.93;;;1.70;;
44925;SDS011;30662;51.210;7.656;2023-05-07T07:37:59;2.70;;;1.20;;
44925;SDS011;30662;51.210;7.656;2023-05-07T07:40:27;1.98;;;1.40;;
44925;SDS011;30662;51.210;7.656;2023-05-07T07:42:53;4.00;;;1.45;;
44925;SDS011;30662;51.210;7.656;2023-05-07T07:45:19;2.55;;;1.63;;
44925;SDS011;30662;51.210;7.656;2023-05-07T07:47:45;2.58;;;1.27;;
44925;SDS011;30662;51.210;7.656;2023-05-07T07:50:11;2.78;;;1.15;;
44925;SDS011;30662;51.210;7.656;2023-05-07T07:52:47;4.78;;;1.30;;
44925;SDS011;30662;51.210;7.656;2023-05-07T07:55:14;4.28;;;1.77;;
44925;SDS011;30662;51.210;7.656;2023-05-07T07:57:43;2.20;;;1.38;;
44925;SDS011;30662;51.210;7.656;2023-05-07T08:00:09;11.15;;;1.70;;
44925;SDS011;30662;51.210;7.656;2023-05-07T08:02:36;1.45;;;1.35;;
44925;SDS011;30662;51.210;7.656;2023-05-07T08:05:02;2.25;;;1.20;;
44925;SDS011;30662;51.210;7.656;2023-05-07T08:07:28;3.55;;;1.50;;
44925;SDS011;30662;51.210;7.656;2023-05-07T08:09:54;3.65;;;1.35;;
44925;SDS011;30662;51.210;7.656;2023-05-07T08:12:20;2.13;;;1.10;;
44925;SDS011;30662;51.210;7.656;2023-05-07T08:14:46;2.33;;;1.15;;
44925;SDS011;30662;51.210;7.656;2023-05-07T08:17:12;4.07;;;1.40;;
44925;SDS011;30662;51.210;7.656;2023-05-07T08:19:42;2.60;;;1.20;;
44925;SDS011;30662;51.210;7.656;2023-05-07T08:22:09;2.70;;;1.52;;
44925;SDS011;30662;51.210;7.656;2023-05-07T08:24:36;1.25;;;1.15;;
44925;SDS011;30662;51.210;7.656;2023-05-07T08:27:02;3.28;;;1.20;;
44925;SDS011;30662;51.210;7.656;2023-05-07T08:29:28;1.30;;;1.20;;
44925;SDS011;30662;51.210;7.656;2023-05-07T08:31:54;2.20;;;1.40;;
44925;SDS011;30662;51.210;7.656;2023-05-07T08:34:21;2.70;;;1.05;;
44925;SDS011;30662;51.210;7.656;2023-05-07T08:36:48;2.65;;;1.48;;
44925;SDS011;30662;51.210;7.656;2023-05-07T08:39:16;1.73;;;1.42;;
44925;SDS011;30662;51.210;7.656;2023-05-07T08:41:45;2.13;;;1.25;;
44925;SDS011;30662;51.210;7.656;2023-05-07T08:44:13;2.15;;;1.23;;
44925;SDS011;30662;51.210;7.656;2023-05-07T08:46:39;1.80;;;1.20;;
44925;SDS011;30662;51.210;7.656;2023-05-07T08:49:07;4.13;;;1.48;;
44925;SDS011;30662;51.210;7.656;2023-05-07T08:51:33;2.05;;;1.50;;
44925;SDS011;30662;51.210;7.656;2023-05-07T08:53:59;3.00;;;1.27;;
44925;SDS011;30662;51.210;7.656;2023-05-07T08:56:27;1.75;;;1.23;;
44925;SDS011;30662;51.210;7.656;2023-05-07T08:58:53;2.13;;;1.20;;
44925;SDS011;30662;51.210;7.656;2023-05-07T09:01:24;1.98;;;1.20;;
44925;SDS011;30662;51.210;7.656;2023-05-07T09:03:50;2.83;;;1.27;;
44925;SDS011;30662;51.210;7.656;2023-05-07T09:06:18;4.40;;;1.52;;
44925;SDS011;30662;51.210;7.656;2023-05-07T09:08:51;1.73;;;1.50;;
44925;SDS011;30662;51.210;7.656;2023-05-07T09:11:21;2.83;;;1.27;;
44925;SDS011;30662;51.210;7.656;2023-05-07T09:13:48;3.47;;;1.27;;
44925;SDS011;30662;51.210;7.656;2023-05-07T09:16:19;4.55;;;1.05;;
44925;SDS011;30662;51.210;7.656;2023-05-07T09:18:46;2.90;;;1.08;;
44925;SDS011;30662;51.210;7.656;2023-05-07T09:21:16;1.33;;;0.80;;
44925;SDS011;30662;51.210;7.656;2023-05-07T09:23:43;1.27;;;1.05;;
44925;SDS011;30662;51.210;7.656;2023-05-07T09:26:09;1.90;;;0.98;;
44925;SDS011;30662;51.210;7.656;2023-05-07T09:28:38;2.65;;;1.20;;
44925;SDS011;30662;51.210;7.656;2023-05-07T09:31:05;4.35;;;1.00;;
44925;SDS011;30662;51.210;7.656;2023-05-07T09:33:31;2.60;;;0.88;;
44925;SDS011;30662;51.210;7.656;2023-05-07T09:35:57;2.17;;;1.08;;
44925;SDS011;30662;51.210;7.656;2023-05-07T09:38:23;3.00;;;0.93;;
44925;SDS011;30662;51.210;7.656;2023-05-07T09:41:01;1.98;;;1.38;;
44925;SDS011;30662;51.210;7.656;2023-05-07T09:43:37;3.10;;;1.48;;
44925;SDS011;30662;51.210;7.656;2023-05-07T09:46:09;2.15;;;1.20;;
44925;SDS011;30662;51.210;7.656;2023-05-07T09:48:38;1.95;;;1.10;;
44925;SDS011;30662;51.210;7.656;2023-05-07T09:51:28;2.42;;;1.20;;
44925;SDS011;30662;51.210;7.656;2023-05-07T09:53:57;1.95;;;1.00;;
44925;SDS011;30662;51.210;7.656;2023-05-07T09:56:31;2.33;;;1.10;;
44925;SDS011;30662;51.210;7.656;2023-05-07T09:59:01;2.08;;;1.40;;
44925;SDS011;30662;51.210;7.656;2023-05-07T10:01:30;3.00;;;1.50;;
44925;SDS011;30662;51.210;7.656;2023-05-07T10:03:57;2.13;;;1.50;;
44925;SDS011;30662;51.210;7.656;2023-05-07T10:06:26;3.00;;;1.20;;
44925;SDS011;30662;51.210;7.656;2023-05-07T10:08:54;12.15;;;1.38;;
44925;SDS011;30662;51.210;7.656;2023-05-07T10:11:21;2.22;;;1.42;;
44925;SDS011;30662;51.210;7.656;2023-05-07T10:13:48;2.17;;;1.30;;
44925;SDS011;30662;51.210;7.656;2023-05-07T10:16:14;3.22;;;1.92;;
44925;SDS011;30662;51.210;7.656;2023-05-07T10:18:40;2.17;;;1.15;;
44925;SDS011;30662;51.210;7.656;2023-05-07T10:21:07;2.38;;;1.40;;
44925;SDS011;30662;51.210;7.656;2023-05-07T10:23:37;2.53;;;1.42;;
44925;SDS011;30662;51.210;7.656;2023-05-07T10:26:05;1.48;;;1.23;;
44925;SDS011;30662;51.210;7.656;2023-05-07T10:28:35;2.08;;;1.35;;
44925;SDS011;30662;51.210;7.656;2023-05-07T10:34:06;1.98;;;0.90;;
44925;SDS011;30662;51.210;7.656;2023-05-07T10:36:36;3.72;;;1.13;;
44925;SDS011;30662;51.210;7.656;2023-05-07T10:39:04;3.25;;;1.02;;
44925;SDS011;30662;51.210;7.656;2023-05-07T10:41:31;4.43;;;1.23;;
44925;SDS011;30662;51.210;7.656;2023-05-07T10:43:57;1.10;;;0.90;;
44925;SDS011;30662;51.210;7.656;2023-05-07T10:46:26;2.75;;;1.08;;
44925;SDS011;30662;51.210;7.656;2023-05-07T10:51:28;3.75;;;1.13;;
44925;SDS011;30662;51.210;7.656;2023-05-07T10:56:35;4.13;;;1.63;;
44925;SDS011;30662;51.210;7.656;2023-05-07T11:01:58;1.65;;;1.05;;
44925;SDS011;30662;51.210;7.656;2023-05-07T11:04:28;1.38;;;1.00;;
44925;SDS011;30662;51.210;7.656;2023-05-07T11:15:07;2.83;;;0.70;;
44925;SDS011;30662;51.210;7.656;2023-05-07T11:17:53;2.47;;;1.10;;
44925;SDS011;30662;51.210;7.656;2023-05-07T11:26:04;4.05;;;1.13;;
44925;SDS011;30662;51.210;7.656;2023-05-07T11:28:38;2.17;;;1.15;;
44925;SDS011;30662;51.210;7.656;2023-05-07T11:31:07;1.98;;;0.98;;
44925;SDS011;30662;51.210;7.656;2023-05-07T11:33:34;5.25;;;0.80;;
44925;SDS011;30662;51.210;7.656;2023-05-07T11:36:02;2.65;;;0.90;;
44925;SDS011;30662;51.210;7.656;2023-05-07T11:38:30;1.58;;;0.77;;
44925;SDS011;30662;51.210;7.656;2023-05-07T11:40:57;4.18;;;1.00;;
44925;SDS011;30662;51.210;7.656;2023-05-07T11:43:28;1.63;;;1.00;;
44925;SDS011;30662;51.210;7.656;2023-05-07T11:45:53;3.25;;;1.30;;
44925;SDS011;30662;51.210;7.656;2023-05-07T11:48:20;2.00;;;0.85;;
44925;SDS011;30662;51.210;7.656;2023-05-07T11:50:51;1.33;;;0.90;;
44925;SDS011;30662;51.210;7.656;2023-05-07T11:53:18;2.08;;;1.00;;
44925;SDS011;30662;51.210;7.656;2023-05-07T11:55:45;2.83;;;0.90;;
44925;SDS011;30662;51.210;7.656;2023-05-07T11:58:12;4.10;;;1.08;;
44925;SDS011;30662;51.210;7.656;2023-05-07T12:00:49;2.00;;;1.02;;
44925;SDS011;30662;51.210;7.656;2023-05-07T12:03:18;1.42;;;0.90;;
44925;SDS011;30662;51.210;7.656;2023-05-07T12:05:45;1.25;;;0.80;;
44925;SDS011;30662;51.210;7.656;2023-05-07T12:08:15;3.25;;;1.50;;
44925;SDS011;30662;51.210;7.656;2023-05-07T12:10:42;1.73;;;1.30;;
44925;SDS011;30662;51.210;7.656;2023-05-07T12:13:18;1.40;;;1.10;;
44925;SDS011;30662;51.210;7.656;2023-05-07T12:15:51;2.92;;;1.05;;
44925;SDS011;30662;51.210;7.656;2023-05-07T12:18:18;3.30;;;1.08;;
44925;SDS011;30662;51.210;7.656;2023-05-07T12:20:49;1.63;;;1.00;;
44925;SDS011;30662;51.210;7.656;2023-05-07T12:23:16;2.85;;;1.23;;
44925;SDS011;30662;51.210;7.656;2023-05-07T12:25:42;2.38;;;1.30;;
44925;SDS011;30662;51.210;7.656;2023-05-07T12:28:13;1.77;;;0.75;;
44925;SDS011;30662;51.210;7.656;2023-05-07T12:30:43;2.63;;;1.02;;
44925;SDS011;30662;51.210;7.656;2023-05-07T12:33:10;2.75;;;1.10;;
44925;SDS011;30662;51.210;7.656;2023-05-07T12:35:37;1.23;;;0.90;;
44925;SDS011;30662;51.210;7.656;2023-05-07T12:38:13;3.28;;;1.30;;
44925;SDS011;30662;51.210;7.656;2023-05-07T12:43:16;2.65;;;1.52;;
44925;SDS011;30662;51.210;7.656;2023-05-07T12:45:43;3.78;;;1.67;;
44925;SDS011;30662;51.210;7.656;2023-05-07T12:48:11;2.35;;;1.45;;
44925;SDS011;30662;51.210;7.656;2023-05-07T12:50:38;2.80;;;2.00;;
44925;SDS011;30662;51.210;7.656;2023-05-07T12:53:04;2.10;;;1.40;;
44925;SDS011;30662;51.210;7.656;2023-05-07T12:55:31;3.63;;;1.60;;
44925;SDS011;30662;51.210;7.656;2023-05-07T12:58:00;4.03;;;2.33;;
44925;SDS011;30662;51.210;7.656;2023-05-07T13:00:37;2.40;;;2.10;;
44925;SDS011;30662;51.210;7.656;2023-05-07T13:03:04;3.95;;;2.20;;
44925;SDS011;30662;51.210;7.656;2023-05-07T13:05:33;2.40;;;2.20;;
44925;SDS011;30662;51.210;7.656;2023-05-07T13:08:00;2.53;;;2.00;;
44925;SDS011;30662;51.210;7.656;2023-05-07T13:10:26;3.60;;;2.20;;
44925;SDS011;30662;51.210;7.656;2023-05-07T13:12:53;3.38;;;1.90;;
44925;SDS011;30662;51.210;7.656;2023-05-07T13:15:19;3.90;;;2.67;;
44925;SDS011;30662;51.210;7.656;2023-05-07T13:17:47;3.45;;;2.10;;
44925;SDS011;30662;51.210;7.656;2023-05-07T13:20:13;5.10;;;2.10;;
44925;SDS011;30662;51.210;7.656;2023-05-07T13:22:39;3.10;;;2.22;;
44925;SDS011;30662;51.210;7.656;2023-05-07T13:25:05;2.90;;;2.53;;
44925;SDS011;30662;51.210;7.656;2023-05-07T13:27:32;3.40;;;2.50;;
44925;SDS011;30662;51.210;7.656;2023-05-07T13:30:02;5.38;;;2.10;;
44925;SDS011;30662;51.210;7.656;2023-05-07T13:32:30;2.47;;;2.00;;
44925;SDS011;30662;51.210;7.656;2023-05-07T13:34:59;3.55;;;2.35;;
44925;SDS011;30662;51.210;7.656;2023-05-07T13:37:25;2.60;;;2.40;;
44925;SDS011;30662;51.210;7.656;2023-05-07T13:39:51;3.45;;;2.15;;
44925;SDS011;30662;51.210;7.656;2023-05-07T13:42:17;2.97;;;2.10;;
44925;SDS011;30662;51.210;7.656;2023-05-07T13:44:43;5.05;;;1.83;;
44925;SDS011;30662;51.210;7.656;2023-05-07T13:47:10;5.05;;;2.20;;
44925;SDS011;30662;51.210;7.656;2023-05-07T13:49:36;3.83;;;1.75;;
44925;SDS011;30662;51.210;7.656;2023-05-07T13:52:03;3.00;;;1.67;;
44925;SDS011;30662;51.210;7.656;2023-05-07T13:54:29;2.83;;;1.88;;
44925;SDS011;30662;51.210;7.656;2023-05-07T13:56:55;1.92;;;1.40;;
44925;SDS011;30662;51.210;7.656;2023-05-07T13:59:21;2.47;;;1.90;;
44925;SDS011;30662;51.210;7.656;2023-05-07T14:01:47;2.33;;;1.45;;
44925;SDS011;30662;51.210;7.656;2023-05-07T14:04:13;1.55;;;1.40;;
44925;SDS011;30662;51.210;7.656;2023-05-07T14:06:39;2.33;;;1.30;;
44925;SDS011;30662;51.210;7.656;2023-05-07T14:09:05;1.20;;;1.08;;
44925;SDS011;30662;51.210;7.656;2023-05-07T14:11:31;1.83;;;1.50;;
44925;SDS011;30662;51.210;7.656;2023-05-07T14:13:59;2.90;;;1.10;;
44925;SDS011;30662;51.210;7.656;2023-05-07T14:16:25;2.75;;;1.35;;
44925;SDS011;30662;51.210;7.656;2023-05-07T14:18:51;1.60;;;1.10;;
44925;SDS011;30662;51.210;7.656;2023-05-07T14:21:17;1.58;;;1.25;;
44925;SDS011;30662;51.210;7.656;2023-05-07T14:23:43;1.45;;;1.10;;
44925;SDS011;30662;51.210;7.656;2023-05-07T14:26:09;3.72;;;1.55;;
44925;SDS011;30662;51.210;7.656;2023-05-07T14:28:36;2.08;;;1.15;;
44925;SDS011;30662;51.210;7.656;2023-05-07T14:31:05;4.57;;;1.65;;
44925;SDS011;30662;51.210;7.656;2023-05-07T14:33:32;2.33;;;1.20;;
44925;SDS011;30662;51.210;7.656;2023-05-07T14:35:58;1.88;;;1.75;;
44925;SDS011;30662;51.210;7.656;2023-05-07T14:38:23;3.78;;;2.10;;
44925;SDS011;30662;51.210;7.656;2023-05-07T14:40:49;2.22;;;1.95;;
44925;SDS011;30662;51.210;7.656;2023-05-07T14:43:15;2.25;;;1.77;;
44925;SDS011;30662;51.210;7.656;2023-05-07T14:45:41;2.72;;;2.20;;
44925;SDS011;30662;51.210;7.656;2023-05-07T14:48:07;2.97;;;2.17;;
44925;SDS011;30662;51.210;7.656;2023-05-07T14:50:34;4.28;;;2.35;;
44925;SDS011;30662;51.210;7.656;2023-05-07T14:53:00;4.82;;;2.13;;
44925;SDS011;30662;51.210;7.656;2023-05-07T14:55:26;4.60;;;2.50;;
44925;SDS011;30662;51.210;7.656;2023-05-07T14:57:52;3.70;;;1.92;;
44925;SDS011;30662;51.210;7.656;2023-05-07T15:00:18;6.30;;;2.40;;
44925;SDS011;30662;51.210;7.656;2023-05-07T15:02:44;3.50;;;2.85;;
44925;SDS011;30662;51.210;7.656;2023-05-07T15:05:10;2.80;;;2.33;;
44925;SDS011;30662;51.210;7.656;2023-05-07T15:07:37;3.35;;;2.63;;
44925;SDS011;30662;51.210;7.656;2023-05-07T15:10:03;3.80;;;2.30;;
44925;SDS011;30662;51.210;7.656;2023-05-07T15:12:30;3.85;;;2.63;;
44925;SDS011;30662;51.210;7.656;2023-05-07T15:14:56;5.25;;;3.40;;
44925;SDS011;30662;51.210;7.656;2023-05-07T15:17:22;3.40;;;2.65;;